createdAt,value
2023-04-30T00:00:36.250Z,9.20
2023-04-30T00:03:04.984Z,9.23
2023-04-30T00:05:32.888Z,9.37
2023-04-30T00:08:00.637Z,9.38
2023-04-30T00:10:28.767Z,9.37
2023-04-30T00:12:57.098Z,9.34
2023-04-30T00:15:26.361Z,9.29
2023-04-30T00:17:54.240Z,9.23
2023-04-30T00:20:22.248Z,9.38
2023-04-30T00:22:50.045Z,9.27
2023-04-30T00:25:17.796Z,9.24
2023-04-30T00:27:45.992Z,9.18
2023-04-30T00:30:14.310Z,9.26
2023-04-30T00:32:45.819Z,9.27
2023-04-30T00:35:13.709Z,9.32
2023-04-30T00:37:42.280Z,9.21
2023-04-30T00:40:11.186Z,9.24
2023-04-30T00:42:38.972Z,9.16
2023-04-30T00:45:08.214Z,9.06
2023-04-30T00:47:37.069Z,9.03
2023-04-30T00:50:07.614Z,9.02
2023-04-30T00:52:35.488Z,9.19
2023-04-30T00:55:03.350Z,9.23
2023-04-30T00:57:31.653Z,9.22
2023-04-30T01:00:00.359Z,9.07
2023-04-30T01:02:28.620Z,8.96
2023-04-30T01:04:57.546Z,9.07
2023-04-30T01:07:28.329Z,8.96
2023-04-30T01:09:56.497Z,9.06
2023-04-30T01:12:39.018Z,9.03
2023-04-30T01:15:16.033Z,8.98
2023-04-30T01:17:49.436Z,8.94
2023-04-30T01:20:17.350Z,8.93
2023-04-30T01:22:56.568Z,8.91
2023-04-30T01:25:45.337Z,8.92
2023-04-30T01:28:19.122Z,8.90
2023-04-30T01:30:48.135Z,8.92
2023-04-30T01:33:16.181Z,8.67
2023-04-30T01:36:11.142Z,8.79
2023-04-30T01:38:57.595Z,8.76
2023-04-30T01:41:34.317Z,8.67
2023-04-30T01:44:14.841Z,8.62
2023-04-30T01:46:47.612Z,8.67
2023-04-30T01:49:26.480Z,8.67
2023-04-30T01:52:01.558Z,8.66
2023-04-30T01:54:40.011Z,8.70
2023-04-30T01:57:08.880Z,8.67
2023-04-30T01:59:41.042Z,8.65
2023-04-30T02:02:08.773Z,8.51
2023-04-30T02:04:36.807Z,8.57
2023-04-30T02:07:05.195Z,8.54
2023-04-30T02:09:33.158Z,8.53
2023-04-30T02:12:01.823Z,8.55
2023-04-30T02:14:31.793Z,8.51
2023-04-30T02:17:01.003Z,8.46
2023-04-30T02:19:28.775Z,8.42
2023-04-30T02:21:56.562Z,8.36
2023-04-30T02:24:24.291Z,8.35
2023-04-30T02:26:52.194Z,8.34
2023-04-30T02:29:20.040Z,8.33
2023-04-30T02:31:47.877Z,8.33
2023-04-30T02:34:17.046Z,8.34
2023-04-30T02:36:44.790Z,8.36
2023-04-30T02:39:12.612Z,8.33
2023-04-30T02:41:40.428Z,8.19
2023-04-30T02:44:08.207Z,8.38
2023-04-30T02:46:35.959Z,8.32
2023-04-30T02:49:03.678Z,8.18
2023-04-30T02:51:32.771Z,8.22
2023-04-30T02:54:01.199Z,8.31
2023-04-30T02:56:28.993Z,8.19
2023-04-30T02:58:56.880Z,8.22
2023-04-30T03:01:24.869Z,8.24
2023-04-30T03:03:52.656Z,8.21
2023-04-30T03:06:20.501Z,8.12
2023-04-30T03:08:49.584Z,7.99
2023-04-30T03:11:17.275Z,8.05
2023-04-30T03:13:45.429Z,8.04
2023-04-30T03:16:13.451Z,7.91
2023-04-30T03:18:41.219Z,7.92
2023-04-30T03:21:09.662Z,7.96
2023-04-30T03:23:38.236Z,7.82
2023-04-30T03:26:08.431Z,7.88
2023-04-30T03:28:36.213Z,7.87
2023-04-30T03:31:05.408Z,7.84
2023-04-30T03:33:33.627Z,7.89
2023-04-30T03:36:01.410Z,7.88
2023-04-30T03:38:29.138Z,7.82
2023-04-30T03:40:56.830Z,7.81
2023-04-30T03:43:25.906Z,7.78
2023-04-30T03:45:54.344Z,7.93
2023-04-30T03:48:22.367Z,7.76
2023-04-30T03:50:50.082Z,7.82
2023-04-30T03:53:17.736Z,7.86
2023-04-30T03:55:46.370Z,7.91
2023-04-30T03:58:14.226Z,7.86
2023-04-30T04:00:45.706Z,7.60
2023-04-30T04:03:13.813Z,7.69
2023-04-30T04:05:42.718Z,7.78
2023-04-30T04:08:11.237Z,7.72
2023-04-30T04:10:39.788Z,7.80
2023-04-30T04:13:07.830Z,7.76
2023-04-30T04:15:36.179Z,7.89
2023-04-30T04:18:07.006Z,7.82
2023-04-30T04:20:35.182Z,7.81
2023-04-30T04:23:03.159Z,7.85
2023-04-30T04:25:31.050Z,7.78
2023-04-30T04:27:59.263Z,7.74
2023-04-30T04:30:27.277Z,7.81
2023-04-30T04:32:55.135Z,7.51
2023-04-30T04:35:24.181Z,7.72
2023-04-30T04:37:51.844Z,7.78
2023-04-30T04:40:19.832Z,7.87
2023-04-30T04:42:51.251Z,7.76
2023-04-30T04:45:19.380Z,7.70
2023-04-30T04:47:48.242Z,7.74
2023-04-30T04:50:16.586Z,7.79
2023-04-30T04:52:45.936Z,7.77
2023-04-30T04:55:15.609Z,7.79
2023-04-30T04:57:43.366Z,7.80
2023-04-30T05:00:12.759Z,7.81
2023-04-30T05:02:40.560Z,7.68
2023-04-30T05:05:09.074Z,7.89
2023-04-30T05:07:36.745Z,7.90
2023-04-30T05:10:07.277Z,8.14
2023-04-30T05:12:35.122Z,8.17
2023-04-30T05:15:04.532Z,8.05
2023-04-30T05:17:32.291Z,8.09
2023-04-30T05:20:00.021Z,8.25
2023-04-30T05:22:28.230Z,8.32
2023-04-30T05:24:55.960Z,8.40
2023-04-30T05:27:25.409Z,8.49
2023-04-30T05:29:53.324Z,8.59
2023-04-30T05:32:21.365Z,8.61
2023-04-30T05:34:49.168Z,8.70
2023-04-30T05:37:17.635Z,8.72
2023-04-30T05:39:45.564Z,8.83
2023-04-30T05:42:13.282Z,8.92
2023-04-30T05:44:42.864Z,9.00
2023-04-30T05:47:10.524Z,9.01
2023-04-30T05:49:38.352Z,9.02
2023-04-30T05:52:06.595Z,9.10
2023-04-30T05:54:34.860Z,9.06
2023-04-30T05:57:02.654Z,9.19
2023-04-30T05:59:30.317Z,9.20
2023-04-30T06:01:59.707Z,9.24
2023-04-30T06:04:27.568Z,9.23
2023-04-30T06:06:55.616Z,9.21
2023-04-30T06:09:23.575Z,9.40
2023-04-30T06:11:52.197Z,9.34
2023-04-30T06:14:22.692Z,9.60
2023-04-30T06:16:50.804Z,9.37
2023-04-30T06:19:20.673Z,9.46
2023-04-30T06:21:48.389Z,9.54
2023-04-30T06:24:16.356Z,9.63
2023-04-30T06:26:44.300Z,9.74
2023-04-30T06:29:11.993Z,9.85
2023-04-30T06:31:39.752Z,9.84
2023-04-30T06:34:07.461Z,9.99
2023-04-30T06:36:36.905Z,10.10
2023-04-30T06:39:05.184Z,10.14
2023-04-30T06:41:33.111Z,10.44
2023-04-30T06:44:01.095Z,10.37
2023-04-30T06:46:28.874Z,10.40
2023-04-30T06:48:56.626Z,10.42
2023-04-30T06:51:24.329Z,10.80
2023-04-30T06:53:53.532Z,11.10
2023-04-30T06:56:21.948Z,11.00
2023-04-30T06:58:50.189Z,11.48
2023-04-30T07:01:18.325Z,11.77
2023-04-30T07:03:46.327Z,11.64
2023-04-30T07:06:14.643Z,11.07
2023-04-30T07:08:43.832Z,10.87
2023-04-30T07:11:13.680Z,10.98
2023-04-30T07:13:41.548Z,10.87
2023-04-30T07:16:10.630Z,10.83
2023-04-30T07:18:39.536Z,10.76
2023-04-30T07:21:08.232Z,10.95
2023-04-30T07:23:36.129Z,11.00
2023-04-30T07:26:04.040Z,11.03
2023-04-30T07:28:33.507Z,11.27
2023-04-30T07:31:02.172Z,11.49
2023-04-30T07:33:30.462Z,11.48
2023-04-30T07:35:58.956Z,11.53
2023-04-30T07:38:26.976Z,11.52
2023-04-30T07:40:54.762Z,11.84
2023-04-30T07:43:22.434Z,12.00
2023-04-30T07:45:53.509Z,12.05
2023-04-30T07:48:21.463Z,12.26
2023-04-30T07:50:51.476Z,12.29
2023-04-30T07:53:20.584Z,12.18
2023-04-30T07:55:48.344Z,11.86
2023-04-30T07:58:16.233Z,11.99
2023-04-30T08:00:44.167Z,12.13
2023-04-30T08:03:13.496Z,12.23
2023-04-30T08:05:41.635Z,12.49
2023-04-30T08:08:09.786Z,12.71
2023-04-30T08:10:37.722Z,12.88
2023-04-30T08:13:06.098Z,12.85
2023-04-30T08:15:34.892Z,12.79
2023-04-30T08:18:03.798Z,13.20
2023-04-30T08:20:33.530Z,13.31
2023-04-30T08:23:01.312Z,13.39
2023-04-30T08:25:29.107Z,13.62
2023-04-30T08:27:56.897Z,13.83
2023-04-30T08:30:24.887Z,13.73
2023-04-30T08:32:53.281Z,14.05
2023-04-30T08:35:22.600Z,13.79
2023-04-30T08:37:51.831Z,13.96
2023-04-30T08:40:19.841Z,14.09
2023-04-30T08:42:55.114Z,13.39
2023-04-30T08:45:23.198Z,13.72
2023-04-30T08:47:51.489Z,14.04
2023-04-30T08:50:20.737Z,14.28
2023-04-30T08:52:48.476Z,14.33
2023-04-30T08:55:17.624Z,14.22
2023-04-30T08:57:45.850Z,13.97
2023-04-30T09:00:15.320Z,14.45
2023-04-30T09:02:44.823Z,14.34
2023-04-30T09:05:14.699Z,14.27
2023-04-30T09:08:01.069Z,14.34
2023-04-30T09:10:35.491Z,14.27
2023-04-30T09:13:04.541Z,14.46
2023-04-30T09:15:33.807Z,14.59
2023-04-30T09:18:13.332Z,14.19
2023-04-30T09:20:56.241Z,14.67
2023-04-30T09:23:24.590Z,14.84
2023-04-30T09:25:53.950Z,14.98
2023-04-30T09:28:24.495Z,15.05
2023-04-30T09:30:53.304Z,15.05
2023-04-30T09:33:21.410Z,15.23
2023-04-30T09:35:49.626Z,15.03
2023-04-30T09:38:28.434Z,15.34
2023-04-30T09:40:59.878Z,15.29
2023-04-30T09:43:27.865Z,15.32
2023-04-30T09:45:55.875Z,15.43
2023-04-30T09:48:25.191Z,15.36
2023-04-30T09:50:55.221Z,15.42
2023-04-30T09:53:24.252Z,15.56
2023-04-30T09:55:52.780Z,15.69
2023-04-30T09:58:24.500Z,15.26
2023-04-30T10:00:55.288Z,15.52
2023-04-30T10:03:25.565Z,15.73
2023-04-30T10:05:55.873Z,15.53
2023-04-30T10:08:28.890Z,15.35
2023-04-30T10:11:04.663Z,15.54
2023-04-30T10:13:39.873Z,15.71
2023-04-30T10:16:13.472Z,15.40
2023-04-30T10:18:44.521Z,15.62
2023-04-30T10:21:14.970Z,15.60
2023-04-30T10:23:43.625Z,15.37
2023-04-30T10:26:12.545Z,15.88
2023-04-30T10:28:42.067Z,15.76
2023-04-30T10:31:11.503Z,15.57
2023-04-30T10:33:49.832Z,15.70
2023-04-30T10:36:25.724Z,15.66
2023-04-30T10:38:54.657Z,15.93
2023-04-30T10:41:22.456Z,16.08
2023-04-30T10:43:52.311Z,16.51
2023-04-30T10:46:23.709Z,15.94
2023-04-30T10:48:53.800Z,15.78
2023-04-30T10:51:22.676Z,15.84
2023-04-30T10:53:52.875Z,16.05
2023-04-30T10:56:34.721Z,16.12
2023-04-30T10:59:03.971Z,16.27
2023-04-30T11:01:32.640Z,16.41
2023-04-30T11:04:08.557Z,16.56
2023-04-30T11:06:51.007Z,16.44
2023-04-30T11:09:19.185Z,16.52
2023-04-30T11:11:47.552Z,16.24
2023-04-30T11:14:22.925Z,16.49
2023-04-30T11:16:51.326Z,16.37
2023-04-30T11:19:19.688Z,16.48
2023-04-30T11:22:23.010Z,16.26
2023-04-30T11:24:55.339Z,16.43
2023-04-30T11:27:25.222Z,16.40
2023-04-30T11:29:56.238Z,16.47
2023-04-30T11:32:26.031Z,16.59
2023-04-30T11:34:54.618Z,16.70
2023-04-30T11:37:30.824Z,16.42
2023-04-30T11:40:01.179Z,16.16
2023-04-30T11:42:30.162Z,16.61
2023-04-30T11:45:06.740Z,16.76
2023-04-30T11:47:42.917Z,16.45
2023-04-30T11:50:12.210Z,16.34
2023-04-30T11:52:40.508Z,16.71
2023-04-30T11:55:09.894Z,16.75
2023-04-30T11:57:41.995Z,16.77
2023-04-30T12:00:14.391Z,17.08
2023-04-30T12:02:43.632Z,16.99
2023-04-30T12:05:17.063Z,17.17
2023-04-30T12:07:49.692Z,17.03
2023-04-30T12:10:19.805Z,17.19
2023-04-30T12:12:51.230Z,17.23
2023-04-30T12:15:26.899Z,17.22
2023-04-30T12:17:56.340Z,17.20
2023-04-30T12:20:26.237Z,17.20
2023-04-30T12:22:54.209Z,17.41
2023-04-30T12:25:23.888Z,17.45
2023-04-30T12:27:53.372Z,17.16
2023-04-30T12:30:26.793Z,16.86
2023-04-30T12:32:58.622Z,16.98
2023-04-30T12:35:29.659Z,17.21
2023-04-30T12:38:03.876Z,17.37
2023-04-30T12:40:31.801Z,17.42
2023-04-30T12:43:03.665Z,17.68
2023-04-30T12:45:48.130Z,17.96
2023-04-30T12:48:17.172Z,17.90
2023-04-30T12:50:49.868Z,18.19
2023-04-30T12:53:17.737Z,17.91
2023-04-30T12:55:45.866Z,17.32
2023-04-30T12:58:16.857Z,17.71
2023-04-30T13:00:50.504Z,18.04
2023-04-30T13:03:20.991Z,17.44
2023-04-30T13:05:51.106Z,17.74
2023-04-30T13:08:20.794Z,17.99
2023-04-30T13:10:49.667Z,18.09
2023-04-30T13:13:20.268Z,18.46
2023-04-30T13:15:49.938Z,18.38
2023-04-30T13:18:17.823Z,18.32
2023-04-30T13:20:46.701Z,18.19
2023-04-30T13:23:15.033Z,18.11
2023-04-30T13:25:43.639Z,18.27
2023-04-30T13:28:11.564Z,18.19
2023-04-30T13:30:41.069Z,18.04
2023-04-30T13:33:10.366Z,18.19
2023-04-30T13:35:38.291Z,18.04
2023-04-30T13:38:06.939Z,17.84
2023-04-30T13:40:34.713Z,18.17
2023-04-30T13:43:02.554Z,17.74
2023-04-30T13:45:30.648Z,17.65
2023-04-30T13:47:58.596Z,17.75
2023-04-30T13:50:27.951Z,17.74
2023-04-30T13:52:55.694Z,18.18
2023-04-30T13:55:24.456Z,18.15
2023-04-30T13:57:52.290Z,17.84
2023-04-30T14:00:22.017Z,17.81
2023-04-30T14:02:50.034Z,17.83
2023-04-30T14:05:18.322Z,17.74
2023-04-30T14:07:47.704Z,17.88
2023-04-30T14:10:15.638Z,18.07
2023-04-30T14:12:43.517Z,17.94
2023-04-30T14:15:11.898Z,17.94
2023-04-30T14:17:39.917Z,17.70
2023-04-30T14:20:09.145Z,18.08
2023-04-30T14:22:38.577Z,18.22
2023-04-30T14:25:09.656Z,17.99
2023-04-30T14:27:38.011Z,17.85
2023-04-30T14:30:07.981Z,17.95
2023-04-30T14:32:36.768Z,18.12
2023-04-30T14:35:05.357Z,17.92
2023-04-30T14:37:33.430Z,18.19
2023-04-30T14:40:02.096Z,18.20
2023-04-30T14:42:31.378Z,17.86
2023-04-30T14:44:59.718Z,17.84
2023-04-30T14:47:28.165Z,18.15
2023-04-30T14:49:58.678Z,17.92
2023-04-30T14:52:26.546Z,18.02
2023-04-30T14:54:54.306Z,17.94
2023-04-30T14:57:23.504Z,17.98
2023-04-30T14:59:55.085Z,17.76
2023-04-30T15:02:23.454Z,17.81
2023-04-30T15:04:51.254Z,17.70
2023-04-30T15:07:19.952Z,18.01
2023-04-30T15:09:48.503Z,17.94
2023-04-30T15:12:16.335Z,17.90
2023-04-30T15:14:44.766Z,17.85
2023-04-30T15:17:14.033Z,17.70
2023-04-30T15:19:41.813Z,17.81
2023-04-30T15:22:09.629Z,17.67
2023-04-30T15:24:38.165Z,17.64
2023-04-30T15:27:05.971Z,17.88
2023-04-30T15:29:34.174Z,17.62
2023-04-30T15:32:02.807Z,17.80
2023-04-30T15:34:32.137Z,17.96
2023-04-30T15:36:59.929Z,17.55
2023-04-30T15:39:27.818Z,17.67
2023-04-30T15:41:55.696Z,18.10
2023-04-30T15:44:23.831Z,17.94
2023-04-30T15:46:52.582Z,17.81
2023-04-30T15:49:21.192Z,18.14
2023-04-30T15:51:51.654Z,18.06
2023-04-30T15:54:19.490Z,17.94
2023-04-30T15:56:48.409Z,17.92
2023-04-30T15:59:18.468Z,17.77
2023-04-30T16:01:47.977Z,17.98
2023-04-30T16:04:15.959Z,17.81
2023-04-30T16:06:47.195Z,17.53
2023-04-30T16:09:19.587Z,17.44
2023-04-30T16:11:48.370Z,17.73
2023-04-30T16:14:16.596Z,17.84
2023-04-30T16:16:44.646Z,17.66
2023-04-30T16:19:13.113Z,17.72
2023-04-30T16:21:41.454Z,17.43
2023-04-30T16:24:10.312Z,17.58
2023-04-30T16:26:39.467Z,17.54
2023-04-30T16:29:07.261Z,17.40
2023-04-30T16:31:35.112Z,17.31
2023-04-30T16:34:02.933Z,17.42
2023-04-30T16:36:31.172Z,17.13
2023-04-30T16:38:59.054Z,17.22
2023-04-30T16:41:26.853Z,17.48
2023-04-30T16:43:55.966Z,17.23
2023-04-30T16:46:23.801Z,17.04
2023-04-30T16:48:51.689Z,17.14
2023-04-30T16:51:19.575Z,16.95
2023-04-30T16:53:47.351Z,17.01
2023-04-30T16:56:15.150Z,17.27
2023-04-30T16:58:42.902Z,17.01
2023-04-30T17:01:12.151Z,17.11
2023-04-30T17:03:40.368Z,17.03
2023-04-30T17:06:08.489Z,17.10
2023-04-30T17:08:37.267Z,17.10
2023-04-30T17:11:06.345Z,16.86
2023-04-30T17:13:34.185Z,16.78
2023-04-30T17:16:02.403Z,16.74
2023-04-30T17:18:33.256Z,16.73
2023-04-30T17:21:01.186Z,16.80
2023-04-30T17:23:28.974Z,16.91
2023-04-30T17:25:57.220Z,16.66
2023-04-30T17:28:25.074Z,16.82
2023-04-30T17:30:52.895Z,16.68
2023-04-30T17:33:20.674Z,16.70
2023-04-30T17:35:49.989Z,16.59
2023-04-30T17:38:18.041Z,16.50
2023-04-30T17:40:45.737Z,16.57
2023-04-30T17:43:14.039Z,16.55
2023-04-30T17:45:41.842Z,16.50
2023-04-30T17:48:10.380Z,16.47
2023-04-30T17:50:38.472Z,16.45
2023-04-30T17:53:07.866Z,16.51
2023-04-30T17:55:35.678Z,16.54
2023-04-30T17:58:03.886Z,16.34
2023-04-30T18:00:31.732Z,16.33
2023-04-30T18:02:59.558Z,16.11
2023-04-30T18:05:27.573Z,16.16
2023-04-30T18:07:55.404Z,16.10
2023-04-30T18:10:24.615Z,16.12
2023-04-30T18:12:53.868Z,16.00
2023-04-30T18:15:22.121Z,16.00
2023-04-30T18:17:52.656Z,16.24
2023-04-30T18:20:21.357Z,16.09
2023-04-30T18:22:49.211Z,15.83
2023-04-30T18:25:17.565Z,15.70
2023-04-30T18:27:46.913Z,15.78
2023-04-30T18:30:14.999Z,15.66
2023-04-30T18:32:44.244Z,15.73
2023-04-30T18:35:12.604Z,15.65
2023-04-30T18:37:40.470Z,15.56
2023-04-30T18:40:09.769Z,15.58
2023-04-30T18:42:38.464Z,15.70
2023-04-30T18:45:09.314Z,15.47
2023-04-30T18:47:37.072Z,15.50
2023-04-30T18:50:06.463Z,15.42
2023-04-30T18:52:34.257Z,15.46
2023-04-30T18:55:02.138Z,15.31
2023-04-30T18:57:31.828Z,15.23
2023-04-30T18:59:59.544Z,15.14
2023-04-30T19:02:29.509Z,15.20
2023-04-30T19:04:57.782Z,15.15
2023-04-30T19:07:26.061Z,15.23
2023-04-30T19:09:54.152Z,15.12
2023-04-30T19:12:22.106Z,15.09
2023-04-30T19:14:50.189Z,14.90
2023-04-30T19:17:20.175Z,14.88
2023-04-30T19:19:50.782Z,14.69
2023-04-30T19:22:18.450Z,14.74
2023-04-30T19:24:46.444Z,14.70
2023-04-30T19:27:14.214Z,14.74
2023-04-30T19:29:41.998Z,14.70
2023-04-30T19:32:10.308Z,14.54
2023-04-30T19:34:38.190Z,14.55
2023-04-30T19:37:07.663Z,14.70
2023-04-30T19:39:36.544Z,14.55
2023-04-30T19:42:05.980Z,14.37
2023-04-30T19:44:33.864Z,14.55
2023-04-30T19:47:01.683Z,14.39
2023-04-30T19:49:29.571Z,14.39
2023-04-30T19:51:57.305Z,14.17
2023-04-30T19:54:26.437Z,14.20
2023-04-30T19:56:54.694Z,14.24
2023-04-30T19:59:22.429Z,14.11
2023-04-30T20:01:52.487Z,14.03
2023-04-30T20:04:23.389Z,14.00
2023-04-30T20:06:56.961Z,14.12
2023-04-30T20:09:26.331Z,14.10
2023-04-30T20:11:55.393Z,14.03
2023-04-30T20:14:24.057Z,14.05
2023-04-30T20:16:54.179Z,14.06
2023-04-30T20:19:22.700Z,13.85
2023-04-30T20:21:50.977Z,14.01
2023-04-30T20:24:19.663Z,13.79
2023-04-30T20:26:48.983Z,13.82
2023-04-30T20:29:18.504Z,13.79
2023-04-30T20:31:46.487Z,13.77
2023-04-30T20:34:14.449Z,13.76
2023-04-30T20:36:42.172Z,13.70
2023-04-30T20:39:10.487Z,13.79
2023-04-30T20:41:38.290Z,13.66
2023-04-30T20:44:07.394Z,13.77
2023-04-30T20:46:36.206Z,13.73
2023-04-30T20:49:05.117Z,13.84
2023-04-30T20:51:33.370Z,13.77
2023-04-30T20:54:01.361Z,13.71
2023-04-30T20:56:29.293Z,13.60
2023-04-30T20:58:57.404Z,13.54
2023-04-30T21:01:27.729Z,13.67
2023-04-30T21:03:56.313Z,13.61
2023-04-30T21:06:24.334Z,13.57
2023-04-30T21:08:51.991Z,13.60
2023-04-30T21:11:20.469Z,13.73
2023-04-30T21:13:50.754Z,13.53
2023-04-30T21:16:19.492Z,13.66
2023-04-30T21:18:49.563Z,13.54
2023-04-30T21:21:17.975Z,13.29
2023-04-30T21:23:48.009Z,13.45
2023-04-30T21:26:16.447Z,13.38
2023-04-30T21:28:44.195Z,13.27
2023-04-30T21:31:11.952Z,13.23
2023-04-30T21:33:39.802Z,13.31
2023-04-30T21:36:09.208Z,13.56
2023-04-30T21:38:38.139Z,13.22
2023-04-30T21:41:05.803Z,13.46
2023-04-30T21:43:33.724Z,13.17
2023-04-30T21:46:02.699Z,13.12
2023-04-30T21:48:30.911Z,13.26
2023-04-30T21:50:58.893Z,13.22
2023-04-30T21:53:28.557Z,13.20
2023-04-30T21:55:57.143Z,13.16
2023-04-30T21:58:24.919Z,13.12
2023-04-30T22:00:54.791Z,13.02
2023-04-30T22:03:22.625Z,13.20
2023-04-30T22:05:50.452Z,13.18
2023-04-30T22:08:18.146Z,12.93
2023-04-30T22:10:47.705Z,12.99
2023-04-30T22:13:15.478Z,12.92
2023-04-30T22:15:48.082Z,12.91
2023-04-30T22:18:16.239Z,12.90
2023-04-30T22:20:44.054Z,12.85
2023-04-30T22:23:12.237Z,12.79
2023-04-30T22:25:39.952Z,12.90
2023-04-30T22:28:10.172Z,12.97
2023-04-30T22:30:38.346Z,12.83
2023-04-30T22:33:06.356Z,12.80
2023-04-30T22:35:38.058Z,12.68
2023-04-30T22:38:06.354Z,12.72
2023-04-30T22:40:35.565Z,12.68
2023-04-30T22:43:04.946Z,12.65
2023-04-30T22:45:36.944Z,12.68
2023-04-30T22:48:05.778Z,12.56
2023-04-30T22:50:33.734Z,12.49
2023-04-30T22:53:01.565Z,12.55
2023-04-30T22:55:31.484Z,12.55
2023-04-30T22:57:59.917Z,12.58
2023-04-30T23:00:27.801Z,12.43
2023-04-30T23:02:57.142Z,12.31
2023-04-30T23:05:24.946Z,12.49
2023-04-30T23:07:52.984Z,12.39
2023-04-30T23:10:20.660Z,12.36
2023-04-30T23:12:48.380Z,12.35
2023-04-30T23:15:16.325Z,12.22
2023-04-30T23:17:44.622Z,12.34
2023-04-30T23:20:14.034Z,12.20
2023-04-30T23:22:41.793Z,12.23
2023-04-30T23:25:09.723Z,12.26
2023-04-30T23:27:37.497Z,12.27
2023-04-30T23:30:06.442Z,12.23
2023-04-30T23:32:34.480Z,12.09
2023-04-30T23:35:02.476Z,12.19
2023-04-30T23:37:31.690Z,12.06
2023-04-30T23:40:00.812Z,12.12
2023-04-30T23:42:28.515Z,12.14
2023-04-30T23:44:56.230Z,12.09
2023-04-30T23:47:24.309Z,12.16
2023-04-30T23:49:52.109Z,12.11
2023-04-30T23:52:19.804Z,12.12
2023-04-30T23:54:49.081Z,12.06
2023-04-30T23:57:19.682Z,11.92
2023-04-30T23:59:47.389Z,11.99
